Terminal Aerodrome Forecast
Issued by NWS

Home | Current Version | Previous Version | Text Only | Print | Product List | Glossary On
Versions: 1 2 3 4 5 6 7 8 9 10 11 12 13 14 15 16 17 18 19 20 21 22 23 24 25 26 27 28
000
FTAK31 PANC 281257 AAA
TAFAHO
TAF AMD
PAHO 281257Z 2813/2912 VRB05KT P6SM SCT007 BKN060
      TEMPO 2813/2815 P6SM BKN007
     FM281600 05005KT P6SM FEW040 SCT060
     FM290700 04005KT P6SM VCSH SCT040 BKN060=

USA.gov is the U.S. government's official web portal to all federal, state and local government web resources and services.